createdAt,value
2022-12-31T00:01:50.692Z,5.29
2022-12-31T00:04:17.649Z,5.28
2022-12-31T00:06:44.708Z,5.34
2022-12-31T00:09:11.708Z,5.46
2022-12-31T00:11:38.901Z,5.33
2022-12-31T00:14:06.092Z,5.33
2022-12-31T00:16:37.006Z,5.34
2022-12-31T00:19:04.784Z,5.37
2022-12-31T00:21:32.593Z,5.41
2022-12-31T00:23:59.666Z,5.32
2022-12-31T00:26:28.284Z,5.39
2022-12-31T00:28:55.915Z,5.37
2022-12-31T00:31:24.550Z,5.32
2022-12-31T00:33:51.677Z,5.37
2022-12-31T00:36:22.477Z,5.33
2022-12-31T00:38:50.323Z,5.47
2022-12-31T00:41:17.690Z,5.35
2022-12-31T00:43:44.878Z,5.38
2022-12-31T00:46:12.091Z,5.41
2022-12-31T00:48:39.316Z,5.37
2022-12-31T00:51:07.743Z,5.33
2022-12-31T00:53:34.784Z,5.37
2022-12-31T00:56:02.220Z,5.50
2022-12-31T00:58:29.257Z,5.38
2022-12-31T01:00:56.214Z,5.47
2022-12-31T01:03:23.568Z,5.40
2022-12-31T01:05:50.640Z,5.48
2022-12-31T01:08:18.119Z,5.44
2022-12-31T01:11:08.177Z,5.45
2022-12-31T01:13:35.135Z,5.31
2022-12-31T01:16:12.161Z,5.41
2022-12-31T01:18:39.359Z,5.50
2022-12-31T01:21:07.948Z,5.38
2022-12-31T01:23:35.071Z,5.48
2022-12-31T01:26:06.233Z,5.48
2022-12-31T01:28:33.549Z,5.49
2022-12-31T01:31:04.328Z,5.39
2022-12-31T01:33:31.355Z,5.41
2022-12-31T01:36:02.945Z,5.44
2022-12-31T01:38:29.929Z,5.53
2022-12-31T01:40:56.825Z,5.46
2022-12-31T01:43:23.812Z,5.50
2022-12-31T01:45:52.748Z,5.51
2022-12-31T01:48:25.287Z,5.39
2022-12-31T01:50:52.604Z,5.36
2022-12-31T01:53:19.559Z,5.42
2022-12-31T01:55:58.005Z,5.51
2022-12-31T01:58:27.917Z,5.45
2022-12-31T02:00:54.891Z,5.49
2022-12-31T02:03:22.354Z,5.56
2022-12-31T02:06:20.433Z,5.57
2022-12-31T02:08:47.741Z,5.40
2022-12-31T02:11:33.117Z,5.62
2022-12-31T02:14:03.453Z,5.48
2022-12-31T02:16:48.979Z,5.58
2022-12-31T02:19:36.995Z,5.61
2022-12-31T02:22:22.936Z,5.51
2022-12-31T02:25:08.859Z,5.62
2022-12-31T02:27:38.676Z,5.55
2022-12-31T02:30:19.745Z,5.50
2022-12-31T02:32:58.132Z,5.64
2022-12-31T02:35:29.522Z,5.58
2022-12-31T02:38:03.432Z,5.62
2022-12-31T02:40:30.555Z,5.49
2022-12-31T02:42:57.467Z,5.39
2022-12-31T02:45:28.782Z,5.52
2022-12-31T02:47:55.679Z,5.68
2022-12-31T02:50:40.723Z,5.68
2022-12-31T02:53:32.896Z,5.61
2022-12-31T02:56:14.332Z,5.63
2022-12-31T02:59:16.498Z,5.66
2022-12-31T03:02:02.848Z,5.57
2022-12-31T03:04:33.292Z,5.59
2022-12-31T03:07:07.334Z,5.67
2022-12-31T03:09:34.951Z,5.60
2022-12-31T03:12:20.306Z,5.67
2022-12-31T03:14:47.417Z,5.62
2022-12-31T03:17:14.385Z,5.63
2022-12-31T03:19:59.750Z,5.71
2022-12-31T03:22:29.858Z,5.67
2022-12-31T03:25:22.083Z,5.60
2022-12-31T03:27:50.043Z,5.51
2022-12-31T03:30:17.678Z,5.68
2022-12-31T03:32:45.326Z,5.68
2022-12-31T03:35:13.523Z,5.73
2022-12-31T03:37:41.215Z,5.69
2022-12-31T03:40:10.407Z,5.63
2022-12-31T03:42:37.665Z,5.73
2022-12-31T03:45:04.822Z,5.70
2022-12-31T03:47:31.779Z,5.63
2022-12-31T03:49:58.716Z,5.69
2022-12-31T03:52:25.596Z,5.61
2022-12-31T03:54:52.545Z,5.74
2022-12-31T03:57:19.556Z,5.75
2022-12-31T03:59:46.442Z,5.70
2022-12-31T04:02:13.527Z,5.66
2022-12-31T04:04:40.623Z,5.71
2022-12-31T04:07:07.555Z,5.77
2022-12-31T04:09:34.493Z,5.78
2022-12-31T04:12:01.437Z,5.69
2022-12-31T04:14:28.400Z,5.77
2022-12-31T04:16:55.295Z,5.73
2022-12-31T04:19:22.251Z,5.68
2022-12-31T04:21:49.247Z,5.72
2022-12-31T04:24:16.190Z,5.68
2022-12-31T04:26:44.235Z,5.62
2022-12-31T04:29:11.294Z,5.67
2022-12-31T04:31:38.274Z,5.74
2022-12-31T04:34:05.309Z,5.71
2022-12-31T04:36:32.256Z,5.72
2022-12-31T04:38:59.176Z,5.69
2022-12-31T04:41:27.270Z,5.76
2022-12-31T04:43:55.540Z,5.74
2022-12-31T04:46:30.202Z,5.68
2022-12-31T04:48:57.266Z,5.73
2022-12-31T04:51:24.673Z,5.72
2022-12-31T04:53:51.648Z,5.80
2022-12-31T04:56:18.621Z,5.82
2022-12-31T04:58:45.703Z,5.61
2022-12-31T05:01:12.736Z,5.76
2022-12-31T05:03:39.906Z,5.78
2022-12-31T05:06:15.814Z,5.85
2022-12-31T05:08:42.858Z,5.78
2022-12-31T05:11:10.039Z,5.83
2022-12-31T05:13:37.091Z,5.84
2022-12-31T05:16:04.280Z,5.85
2022-12-31T05:18:31.602Z,5.76
2022-12-31T05:20:58.570Z,5.83
2022-12-31T05:23:25.608Z,5.82
2022-12-31T05:25:52.524Z,5.87
2022-12-31T05:28:19.653Z,5.65
2022-12-31T05:30:49.055Z,5.72
2022-12-31T05:33:16.352Z,5.82
2022-12-31T05:35:43.239Z,5.86
2022-12-31T05:38:10.207Z,5.81
2022-12-31T05:40:37.209Z,5.82
2022-12-31T05:43:04.186Z,5.80
2022-12-31T05:45:31.515Z,5.87
2022-12-31T05:47:58.667Z,5.74
2022-12-31T05:50:25.619Z,5.86
2022-12-31T05:52:56.083Z,5.88
2022-12-31T05:55:23.137Z,5.86
2022-12-31T05:57:50.045Z,5.89
2022-12-31T06:00:17.299Z,5.86
2022-12-31T06:02:45.268Z,5.82
2022-12-31T06:05:12.412Z,5.76
2022-12-31T06:07:39.476Z,5.94
2022-12-31T06:10:06.978Z,5.82
2022-12-31T06:12:34.056Z,5.84
2022-12-31T06:15:00.998Z,5.88
2022-12-31T06:17:32.156Z,5.86
2022-12-31T06:20:00.026Z,5.82
2022-12-31T06:22:26.960Z,5.83
2022-12-31T06:24:53.962Z,5.96
2022-12-31T06:27:20.878Z,5.95
2022-12-31T06:29:48.285Z,5.84
2022-12-31T06:32:16.109Z,5.89
2022-12-31T06:34:43.103Z,5.95
2022-12-31T06:37:10.022Z,5.80
2022-12-31T06:39:36.935Z,5.93
2022-12-31T06:42:03.971Z,5.97
2022-12-31T06:44:30.982Z,5.93
2022-12-31T06:46:58.005Z,5.95
2022-12-31T06:49:25.047Z,5.84
2022-12-31T06:51:52.001Z,5.86
2022-12-31T06:54:19.435Z,5.97
2022-12-31T06:56:46.567Z,5.86
2022-12-31T06:59:23.243Z,5.98
2022-12-31T07:02:19.391Z,6.01
2022-12-31T07:05:05.983Z,5.93
2022-12-31T07:07:48.107Z,6.00
2022-12-31T07:10:27.296Z,5.94
2022-12-31T07:13:05.306Z,5.98
2022-12-31T07:15:47.562Z,6.04
2022-12-31T07:18:33.288Z,5.98
2022-12-31T07:21:00.653Z,5.85
2022-12-31T07:23:27.892Z,5.93
2022-12-31T07:26:06.502Z,5.91
2022-12-31T07:28:45.595Z,6.02
2022-12-31T07:31:34.893Z,5.90
2022-12-31T07:34:16.238Z,5.87
2022-12-31T07:37:21.662Z,6.06
2022-12-31T07:40:06.859Z,6.06
2022-12-31T07:42:46.535Z,6.00
2022-12-31T07:45:27.272Z,6.04
2022-12-31T07:48:02.831Z,6.03
2022-12-31T07:50:30.668Z,5.94
2022-12-31T07:52:57.889Z,5.91
2022-12-31T07:55:24.994Z,6.00
2022-12-31T07:58:04.619Z,6.14
2022-12-31T08:00:31.693Z,6.02
2022-12-31T08:03:35.824Z,6.14
2022-12-31T08:06:15.521Z,5.99
2022-12-31T08:08:46.809Z,6.14
2022-12-31T08:11:34.623Z,6.12
2022-12-31T08:14:02.691Z,6.14
2022-12-31T08:16:31.411Z,6.15
2022-12-31T08:18:58.771Z,6.15
2022-12-31T08:21:35.004Z,6.20
2022-12-31T08:24:26.589Z,6.18
2022-12-31T08:27:00.958Z,6.08
2022-12-31T08:29:34.101Z,6.21
2022-12-31T08:32:07.404Z,6.20
2022-12-31T08:35:06.713Z,6.18
2022-12-31T08:38:04.725Z,6.19
2022-12-31T08:40:35.181Z,6.15
2022-12-31T08:43:33.416Z,6.24
2022-12-31T08:46:00.585Z,6.20
2022-12-31T08:48:40.544Z,6.27
2022-12-31T08:51:13.275Z,6.24
2022-12-31T08:53:40.484Z,6.27
2022-12-31T08:56:41.403Z,6.28
2022-12-31T08:59:15.323Z,6.26
2022-12-31T09:01:54.699Z,6.31
2022-12-31T09:04:21.745Z,6.32
2022-12-31T09:06:54.139Z,6.24
2022-12-31T09:09:28.381Z,6.33
2022-12-31T09:12:15.651Z,6.35
2022-12-31T09:14:50.465Z,6.25
2022-12-31T09:17:36.171Z,6.38
2022-12-31T09:20:03.673Z,6.36
2022-12-31T09:22:31.044Z,6.35
2022-12-31T09:25:01.321Z,6.28
2022-12-31T09:27:28.939Z,6.43
2022-12-31T09:30:05.087Z,6.44
2022-12-31T09:32:42.946Z,6.44
2022-12-31T09:35:31.187Z,6.44
2022-12-31T09:38:07.913Z,6.28
2022-12-31T09:41:01.526Z,6.27
2022-12-31T09:43:31.784Z,6.47
2022-12-31T09:46:23.719Z,6.49
2022-12-31T09:49:03.045Z,6.41
2022-12-31T09:51:30.931Z,6.49
2022-12-31T09:54:19.732Z,6.53
2022-12-31T09:57:06.976Z,6.37
2022-12-31T09:59:41.426Z,6.48
2022-12-31T10:02:33.529Z,6.57
2022-12-31T10:05:12.985Z,6.57
2022-12-31T10:07:53.646Z,6.46
2022-12-31T10:10:57.863Z,6.39
2022-12-31T10:13:49.787Z,6.57
2022-12-31T10:16:21.801Z,6.62
2022-12-31T10:19:00.574Z,6.63
2022-12-31T10:22:05.161Z,6.64
2022-12-31T10:24:35.138Z,6.46
2022-12-31T10:27:09.431Z,6.57
2022-12-31T10:29:58.267Z,6.62
2022-12-31T10:32:45.935Z,6.60
2022-12-31T10:35:15.408Z,6.57
2022-12-31T10:38:19.499Z,6.70
2022-12-31T10:40:52.546Z,6.66
2022-12-31T10:43:58.065Z,6.71
2022-12-31T10:46:37.439Z,6.68
2022-12-31T10:49:43.514Z,6.72
2022-12-31T10:52:38.167Z,6.57
2022-12-31T10:55:26.636Z,6.78
2022-12-31T10:58:16.908Z,6.78
2022-12-31T11:00:53.618Z,6.79
2022-12-31T11:03:35.844Z,6.76
2022-12-31T11:06:17.736Z,6.84
2022-12-31T11:09:19.690Z,6.84
2022-12-31T11:12:05.824Z,6.85
2022-12-31T11:14:38.848Z,6.89
2022-12-31T11:17:27.501Z,6.80
2022-12-31T11:20:15.864Z,6.85
2022-12-31T11:23:01.820Z,6.89
2022-12-31T11:25:30.920Z,6.92
2022-12-31T11:28:12.979Z,6.95
2022-12-31T11:30:59.567Z,6.95
2022-12-31T11:33:35.589Z,6.98
2022-12-31T11:36:09.694Z,7.01
2022-12-31T11:38:41.126Z,6.98
2022-12-31T11:41:13.060Z,6.98
2022-12-31T11:43:47.788Z,7.02
2022-12-31T11:46:33.677Z,7.07
2022-12-31T11:49:45.320Z,7.11
2022-12-31T11:52:49.020Z,7.12
2022-12-31T11:55:34.435Z,7.15
2022-12-31T11:58:22.698Z,6.96
2022-12-31T12:00:58.508Z,7.00
2022-12-31T12:03:25.727Z,7.09
2022-12-31T12:05:52.804Z,7.18
2022-12-31T12:08:19.870Z,7.31
2022-12-31T12:10:48.593Z,7.34
2022-12-31T12:13:24.195Z,7.35
2022-12-31T12:15:53.255Z,7.24
2022-12-31T12:18:24.988Z,7.19
2022-12-31T12:20:52.029Z,7.28
2022-12-31T12:23:24.794Z,7.16
2022-12-31T12:25:51.944Z,7.18
2022-12-31T12:28:23.790Z,7.37
2022-12-31T12:30:55.939Z,7.38
2022-12-31T12:33:23.094Z,7.30
2022-12-31T12:35:50.206Z,7.47
2022-12-31T12:38:21.394Z,7.33
2022-12-31T12:41:02.437Z,7.33
2022-12-31T12:43:36.262Z,7.37
2022-12-31T12:46:04.426Z,7.53
2022-12-31T12:48:42.733Z,7.57
2022-12-31T12:51:33.080Z,7.54
2022-12-31T12:54:10.430Z,7.49
2022-12-31T12:56:39.970Z,7.58
2022-12-31T12:59:38.892Z,7.57
2022-12-31T13:02:11.984Z,7.60
2022-12-31T13:04:51.752Z,7.59
2022-12-31T13:07:58.771Z,7.46
2022-12-31T13:11:06.407Z,7.59
2022-12-31T13:13:59.470Z,7.59
2022-12-31T13:16:47.859Z,7.62
2022-12-31T13:19:36.393Z,7.64
2022-12-31T13:22:14.898Z,7.66
2022-12-31T13:25:06.308Z,7.45
2022-12-31T13:27:41.019Z,7.67
2022-12-31T13:30:31.567Z,7.58
2022-12-31T13:33:04.021Z,7.45
2022-12-31T13:35:47.431Z,7.72
2022-12-31T13:38:21.991Z,7.59
2022-12-31T13:40:54.114Z,7.55
2022-12-31T13:43:33.399Z,7.72
2022-12-31T13:46:12.614Z,7.79
2022-12-31T13:48:51.928Z,7.68
2022-12-31T13:51:42.937Z,7.61
2022-12-31T13:54:22.683Z,7.71
2022-12-31T13:56:49.763Z,7.68
2022-12-31T13:59:34.798Z,7.62
2022-12-31T14:02:23.654Z,7.63
2022-12-31T14:04:53.389Z,7.88
2022-12-31T14:07:35.449Z,7.84
2022-12-31T14:10:14.024Z,7.68
2022-12-31T14:12:50.250Z,7.92
2022-12-31T14:15:35.858Z,7.82
2022-12-31T14:18:25.963Z,7.90
2022-12-31T14:21:06.739Z,7.88
2022-12-31T14:24:01.157Z,7.93
2022-12-31T14:26:35.074Z,7.94
2022-12-31T14:29:11.378Z,7.95
2022-12-31T14:31:50.361Z,7.91
2022-12-31T14:34:29.660Z,7.95
2022-12-31T14:37:21.468Z,7.93
2022-12-31T14:40:10.440Z,7.93
2022-12-31T14:42:52.175Z,7.79
2022-12-31T14:45:25.225Z,7.95
2022-12-31T14:48:01.215Z,7.94
2022-12-31T14:50:29.218Z,7.95
2022-12-31T14:53:08.027Z,7.96
2022-12-31T14:55:39.094Z,7.79
2022-12-31T14:58:28.211Z,7.89
2022-12-31T15:01:00.649Z,7.86
2022-12-31T15:03:45.468Z,7.94
2022-12-31T15:06:48.198Z,7.91
2022-12-31T15:09:47.576Z,7.85
2022-12-31T15:12:28.445Z,7.72
2022-12-31T15:15:14.059Z,7.86
2022-12-31T15:18:06.364Z,7.91
2022-12-31T15:21:03.572Z,7.85
2022-12-31T15:23:35.910Z,7.85
2022-12-31T15:26:03.038Z,7.73
2022-12-31T15:28:33.964Z,7.82
2022-12-31T15:31:20.289Z,7.78
2022-12-31T15:34:03.233Z,7.76
2022-12-31T15:36:39.095Z,7.84
2022-12-31T15:39:11.997Z,7.94
2022-12-31T15:42:18.781Z,7.90
2022-12-31T15:44:50.399Z,7.90
2022-12-31T15:47:50.151Z,7.88
2022-12-31T15:50:24.992Z,7.89
2022-12-31T15:52:57.970Z,7.90
2022-12-31T15:55:33.370Z,7.88
2022-12-31T15:58:05.910Z,7.90
2022-12-31T16:01:23.291Z,7.87
2022-12-31T16:03:56.961Z,7.74
2022-12-31T16:06:24.440Z,7.60
2022-12-31T16:08:51.878Z,7.88
2022-12-31T16:11:20.485Z,7.72
2022-12-31T16:13:50.114Z,7.89
2022-12-31T16:16:25.767Z,7.73
2022-12-31T16:18:53.419Z,7.62
2022-12-31T16:21:35.723Z,7.71
2022-12-31T16:24:31.131Z,7.63
2022-12-31T16:27:03.201Z,7.69
2022-12-31T16:29:31.025Z,7.66
2022-12-31T16:31:58.252Z,7.62
2022-12-31T16:34:26.987Z,7.60
2022-12-31T16:36:55.728Z,7.60
2022-12-31T16:39:26.055Z,7.56
2022-12-31T16:42:06.964Z,7.63
2022-12-31T16:44:34.044Z,7.55
2022-12-31T16:47:01.914Z,7.62
2022-12-31T16:49:30.934Z,7.57
2022-12-31T16:52:03.837Z,7.58
2022-12-31T16:54:34.611Z,7.73
2022-12-31T16:57:03.807Z,7.71
2022-12-31T16:59:36.288Z,7.51
2022-12-31T17:02:07.003Z,7.51
2022-12-31T17:04:35.216Z,7.56
2022-12-31T17:07:28.171Z,7.68
2022-12-31T17:10:07.551Z,7.67
2022-12-31T17:13:00.623Z,7.68
2022-12-31T17:15:29.339Z,7.54
2022-12-31T17:17:58.604Z,7.48
2022-12-31T17:20:28.027Z,7.50
2022-12-31T17:23:00.003Z,7.53
2022-12-31T17:25:31.195Z,7.53
2022-12-31T17:28:03.601Z,7.45
2022-12-31T17:30:31.648Z,7.66
2022-12-31T17:33:08.308Z,7.42
2022-12-31T17:35:37.061Z,7.57
2022-12-31T17:38:22.540Z,7.61
2022-12-31T17:40:54.375Z,7.34
2022-12-31T17:43:22.902Z,7.54
2022-12-31T17:45:53.058Z,7.51
2022-12-31T17:48:20.423Z,7.48
2022-12-31T17:50:58.202Z,7.38
2022-12-31T17:53:25.310Z,7.42
2022-12-31T17:55:53.898Z,7.45
2022-12-31T17:58:33.826Z,7.54
2022-12-31T18:01:01.047Z,7.35
2022-12-31T18:03:28.218Z,7.28
2022-12-31T18:05:55.415Z,7.32
2022-12-31T18:08:22.491Z,7.39
2022-12-31T18:10:49.580Z,7.22
2022-12-31T18:13:21.426Z,7.29
2022-12-31T18:15:48.666Z,7.22
2022-12-31T18:18:29.221Z,7.33
2022-12-31T18:21:01.428Z,7.19
2022-12-31T18:23:33.221Z,7.36
2022-12-31T18:26:00.409Z,7.15
2022-12-31T18:28:27.487Z,7.15
2022-12-31T18:30:54.665Z,7.20
2022-12-31T18:33:25.926Z,7.10
2022-12-31T18:36:10.023Z,7.13
2022-12-31T18:38:37.659Z,7.09
2022-12-31T18:41:04.914Z,7.09
2022-12-31T18:43:32.084Z,7.15
2022-12-31T18:45:59.299Z,7.04
2022-12-31T18:48:26.428Z,7.04
2022-12-31T18:50:53.418Z,7.06
2022-12-31T18:53:22.407Z,7.02
2022-12-31T18:55:55.936Z,7.17
2022-12-31T18:58:23.256Z,6.88
2022-12-31T19:00:50.634Z,6.95
2022-12-31T19:03:19.751Z,6.90
2022-12-31T19:05:49.932Z,6.84
2022-12-31T19:08:18.121Z,6.90
2022-12-31T19:10:45.258Z,6.88
2022-12-31T19:13:13.256Z,6.86
2022-12-31T19:15:45.159Z,6.96
2022-12-31T19:18:12.313Z,6.89
2022-12-31T19:20:41.337Z,6.76
2022-12-31T19:23:19.597Z,6.88
2022-12-31T19:25:47.418Z,6.85
2022-12-31T19:28:22.144Z,6.64
2022-12-31T19:30:49.185Z,6.65
2022-12-31T19:33:16.348Z,6.62
2022-12-31T19:35:43.856Z,6.66
2022-12-31T19:38:32.591Z,6.82
2022-12-31T19:40:59.871Z,6.70
2022-12-31T19:43:26.966Z,6.65
2022-12-31T19:45:54.205Z,6.58
2022-12-31T19:48:27.216Z,6.62
2022-12-31T19:50:59.329Z,6.47
2022-12-31T19:53:27.144Z,6.46
2022-12-31T19:55:54.203Z,6.42
2022-12-31T19:58:25.739Z,6.57
2022-12-31T20:00:58.249Z,6.62
2022-12-31T20:03:29.070Z,6.53
2022-12-31T20:06:07.308Z,6.50
2022-12-31T20:08:35.363Z,6.35
2022-12-31T20:11:20.514Z,6.40
2022-12-31T20:13:48.044Z,6.46
2022-12-31T20:16:17.281Z,6.39
2022-12-31T20:18:45.500Z,6.35
2022-12-31T20:21:14.375Z,6.41
2022-12-31T20:23:41.551Z,6.31
2022-12-31T20:26:08.833Z,6.31
2022-12-31T20:28:36.863Z,6.46
2022-12-31T20:31:09.741Z,6.33
2022-12-31T20:33:36.960Z,6.21
2022-12-31T20:36:05.006Z,6.28
2022-12-31T20:38:32.149Z,6.20
2022-12-31T20:41:13.104Z,6.20
2022-12-31T20:43:40.317Z,6.27
2022-12-31T20:46:14.299Z,6.16
2022-12-31T20:48:42.175Z,6.16
2022-12-31T20:51:10.655Z,6.28
2022-12-31T20:53:37.835Z,5.98
2022-12-31T20:56:06.107Z,6.10
2022-12-31T20:58:33.149Z,6.00
2022-12-31T21:01:00.554Z,6.00
2022-12-31T21:04:03.762Z,5.96
2022-12-31T21:06:15.018Z,5.96
2022-12-31T21:08:42.229Z,5.88
2022-12-31T21:11:27.987Z,6.10
2022-12-31T21:13:55.917Z,5.95
2022-12-31T21:16:23.229Z,5.96
2022-12-31T21:18:50.422Z,5.95
2022-12-31T21:21:18.052Z,6.00
2022-12-31T21:23:45.376Z,5.86
2022-12-31T21:26:12.544Z,5.89
2022-12-31T21:28:39.607Z,5.80
2022-12-31T21:31:07.460Z,5.80
2022-12-31T21:33:34.704Z,6.00
2022-12-31T21:36:04.816Z,5.98
2022-12-31T21:38:32.073Z,5.85
2022-12-31T21:41:06.054Z,5.82
2022-12-31T21:43:33.219Z,5.86
2022-12-31T21:46:04.355Z,5.81
2022-12-31T21:48:31.715Z,5.75
2022-12-31T21:51:07.431Z,5.85
2022-12-31T21:53:37.267Z,5.65
2022-12-31T21:56:13.689Z,5.65
2022-12-31T21:58:42.196Z,5.65
2022-12-31T22:01:33.722Z,5.65
2022-12-31T22:04:00.990Z,5.73
2022-12-31T22:06:28.027Z,5.63
2022-12-31T22:08:55.669Z,5.74
2022-12-31T22:11:24.912Z,5.77
2022-12-31T22:13:52.046Z,5.59
2022-12-31T22:16:20.515Z,5.70
2022-12-31T22:18:47.883Z,5.56
2022-12-31T22:21:19.207Z,5.57
2022-12-31T22:23:54.158Z,5.59
2022-12-31T22:26:23.651Z,5.54
2022-12-31T22:28:50.897Z,5.51
2022-12-31T22:31:19.614Z,5.51
2022-12-31T22:33:46.646Z,5.67
2022-12-31T22:36:15.842Z,5.48
2022-12-31T22:38:42.861Z,5.57
2022-12-31T22:41:19.997Z,5.40
2022-12-31T22:43:49.242Z,5.48
2022-12-31T22:46:18.182Z,5.44
2022-12-31T22:48:45.322Z,5.45
2022-12-31T22:51:13.071Z,5.48
2022-12-31T22:53:41.444Z,5.36
2022-12-31T22:56:09.003Z,5.30
2022-12-31T22:58:36.177Z,5.47
2022-12-31T23:01:16.489Z,5.49
2022-12-31T23:03:43.619Z,5.42
2022-12-31T23:06:10.795Z,5.32
2022-12-31T23:08:37.919Z,5.40
2022-12-31T23:11:09.739Z,5.41
2022-12-31T23:14:00.225Z,5.32
2022-12-31T23:16:47.186Z,5.33
2022-12-31T23:19:33.141Z,5.35
2022-12-31T23:22:18.837Z,5.27
2022-12-31T23:24:45.843Z,5.46
2022-12-31T23:27:12.930Z,5.31
2022-12-31T23:29:46.173Z,5.22
2022-12-31T23:32:15.910Z,5.20
2022-12-31T23:34:43.326Z,5.29
2022-12-31T23:37:10.841Z,5.47
2022-12-31T23:39:37.864Z,5.44
2022-12-31T23:42:04.892Z,5.30
2022-12-31T23:44:32.023Z,5.29
2022-12-31T23:46:59.006Z,5.45
2022-12-31T23:49:26.056Z,5.22
2022-12-31T23:51:53.043Z,5.33
2022-12-31T23:54:20.050Z,5.40
2022-12-31T23:56:47.050Z,5.15
2022-12-31T23:59:14.078Z,5.26
